Terminal Aerodrome Forecast
Issued by NWS

Home | Current Version | Previous Version | Text Only | Print | Product List | Glossary On
Versions: 1 2 3 4 5 6 7 8 9 10 11 12 13
933
FTUS42 TJSJ 302324
TAFJMZ
TAF
TJMZ 302324Z 0100/0124 06006KT P6SM SCT050 BKN120
     FM011500 21008KT P6SM FEW025 SCT050 PROB30 0115/0118 P6SM -RA
      BKN025
     FM011800 01012KT P6SM BKN050
      AMD NOT SKED=

USA.gov is the U.S. government's official web portal to all federal, state and local government web resources and services.